createdAt,value
2019-05-15T00:00:49.359Z,2.38
2019-05-15T00:01:49.329Z,2.34
2019-05-15T00:02:49.297Z,2.28
2019-05-15T00:03:49.500Z,2.36
2019-05-15T00:04:49.345Z,2.38
2019-05-15T00:05:49.704Z,2.39
2019-05-15T00:06:49.173Z,2.38
2019-05-15T00:07:49.138Z,2.30
2019-05-15T00:08:49.106Z,2.23
2019-05-15T00:09:49.334Z,2.34
2019-05-15T00:10:49.041Z,2.25
2019-05-15T00:11:49.010Z,2.21
2019-05-15T00:12:48.980Z,2.25
2019-05-15T00:13:48.946Z,2.24
2019-05-15T00:14:48.915Z,2.14
2019-05-15T00:15:48.889Z,2.12
2019-05-15T00:16:48.855Z,2.14
2019-05-15T00:17:48.818Z,2.06
2019-05-15T00:18:48.787Z,1.93
2019-05-15T00:19:48.764Z,1.88
2019-05-15T00:20:49.608Z,2.07
2019-05-15T00:21:49.118Z,1.98
2019-05-15T00:22:48.660Z,2.06
2019-05-15T00:23:49.369Z,2.10
2019-05-15T00:24:48.948Z,2.07
2019-05-15T00:25:48.869Z,1.93
2019-05-15T00:26:48.532Z,1.91
2019-05-15T00:27:49.150Z,1.91
2019-05-15T00:28:48.472Z,1.95
2019-05-15T00:29:48.726Z,1.84
2019-05-15T00:30:48.407Z,1.86
2019-05-15T00:31:48.678Z,1.90
2019-05-15T00:32:48.782Z,1.84
2019-05-15T00:33:48.418Z,1.81
2019-05-15T00:34:48.800Z,1.83
2019-05-15T00:35:48.620Z,1.90
2019-05-15T00:36:48.869Z,1.83
2019-05-15T00:37:49.310Z,1.81
2019-05-15T00:38:48.423Z,1.86
2019-05-15T00:39:48.611Z,1.91
2019-05-15T00:40:49.573Z,1.84
2019-05-15T00:41:54.096Z,1.98
2019-05-15T00:42:48.756Z,1.95
2019-05-15T00:43:49.421Z,2.00
2019-05-15T00:44:49.312Z,2.00
2019-05-15T00:45:48.851Z,2.05
2019-05-15T00:46:48.764Z,1.93
2019-05-15T00:47:48.723Z,1.90
2019-05-15T00:48:48.771Z,1.91
2019-05-15T00:49:48.758Z,1.90
2019-05-15T00:50:48.509Z,1.99
2019-05-15T00:51:48.740Z,1.93
2019-05-15T00:52:48.437Z,1.81
2019-05-15T00:53:48.298Z,1.84
2019-05-15T00:54:48.409Z,1.84
2019-05-15T00:55:48.638Z,1.79
2019-05-15T00:56:48.433Z,1.81
2019-05-15T00:57:48.483Z,1.76
2019-05-15T00:58:48.216Z,1.76
2019-05-15T00:59:48.379Z,1.68
2019-05-15T01:00:48.633Z,1.66
2019-05-15T01:01:48.742Z,1.59
2019-05-15T01:02:48.732Z,1.55
2019-05-15T01:03:49.328Z,1.59
2019-05-15T01:04:47.972Z,1.48
2019-05-15T01:05:48.091Z,1.44
2019-05-15T01:06:48.799Z,1.32
2019-05-15T01:07:48.026Z,1.29
2019-05-15T01:08:48.255Z,1.23
2019-05-15T01:09:48.688Z,1.18
2019-05-15T01:10:48.835Z,1.23
2019-05-15T01:11:48.779Z,1.26
2019-05-15T01:12:48.679Z,1.36
2019-05-15T01:13:48.166Z,1.32
2019-05-15T01:14:48.944Z,1.45
2019-05-15T01:15:48.984Z,1.40
2019-05-15T01:16:48.982Z,1.40
2019-05-15T01:17:49.057Z,1.32
2019-05-15T01:18:48.978Z,1.40
2019-05-15T01:19:48.218Z,1.32
2019-05-15T01:20:49.094Z,1.22
2019-05-15T01:21:48.072Z,1.18
2019-05-15T01:22:48.531Z,1.23
2019-05-15T01:23:48.393Z,1.20
2019-05-15T01:24:48.524Z,1.15
2019-05-15T01:25:48.221Z,1.14
2019-05-15T01:26:49.022Z,1.14
2019-05-15T01:27:48.843Z,1.14
2019-05-15T01:28:49.248Z,1.06
2019-05-15T01:29:49.130Z,1.04
2019-05-15T01:30:48.449Z,1.02
2019-05-15T01:31:48.623Z,0.98
2019-05-15T01:32:48.479Z,1.04
2019-05-15T01:33:48.087Z,1.00
2019-05-15T01:34:46.345Z,0.96
2019-05-15T01:35:48.581Z,0.93
2019-05-15T01:36:48.688Z,0.96
2019-05-15T01:37:48.176Z,1.00
2019-05-15T01:38:48.080Z,1.05
2019-05-15T01:39:48.420Z,1.09
2019-05-15T01:40:48.426Z,1.22
2019-05-15T01:41:49.337Z,1.22
2019-05-15T01:42:46.085Z,1.23
2019-05-15T01:43:48.717Z,1.27
2019-05-15T01:44:48.252Z,1.22
2019-05-15T01:45:48.130Z,1.23
2019-05-15T01:46:48.129Z,1.30
2019-05-15T01:47:47.943Z,1.32
2019-05-15T01:48:45.892Z,1.30
2019-05-15T01:49:45.857Z,1.29
2019-05-15T01:50:45.826Z,1.27
2019-05-15T01:51:47.830Z,1.29
2019-05-15T01:52:47.893Z,1.20
2019-05-15T01:53:47.851Z,1.18
2019-05-15T01:54:45.696Z,1.15
2019-05-15T01:55:45.662Z,1.08
2019-05-15T01:56:45.628Z,1.14
2019-05-15T01:57:45.596Z,1.04
2019-05-15T01:58:45.564Z,0.93
2019-05-15T01:59:54.782Z,0.87
2019-05-15T02:00:45.498Z,0.78
2019-05-15T02:01:45.469Z,0.73
2019-05-15T02:02:45.445Z,0.83
2019-05-15T02:03:45.401Z,0.80
2019-05-15T02:04:45.368Z,0.84
2019-05-15T02:05:45.336Z,0.70
2019-05-15T02:06:45.303Z,0.65
2019-05-15T02:07:45.271Z,0.65
2019-05-15T02:08:45.238Z,0.79
2019-05-15T02:09:45.204Z,0.76
2019-05-15T02:10:45.183Z,0.76
2019-05-15T02:11:45.142Z,0.80
2019-05-15T02:12:45.105Z,0.76
2019-05-15T02:13:45.075Z,0.73
2019-05-15T02:14:45.046Z,0.76
2019-05-15T02:15:45.009Z,0.76
2019-05-15T02:16:44.979Z,0.65
2019-05-15T02:17:44.944Z,0.69
2019-05-15T02:18:44.911Z,0.65
2019-05-15T02:19:44.879Z,0.70
2019-05-15T02:20:44.845Z,0.75
2019-05-15T02:21:44.813Z,0.70
2019-05-15T02:22:44.780Z,0.65
2019-05-15T02:23:44.749Z,0.65
2019-05-15T02:24:44.715Z,0.60
2019-05-15T02:25:44.681Z,0.57
2019-05-15T02:26:44.650Z,0.65
2019-05-15T02:27:44.617Z,0.60
2019-05-15T02:28:44.584Z,0.53
2019-05-15T02:29:44.552Z,0.47
2019-05-15T02:30:44.520Z,0.47
2019-05-15T02:31:44.493Z,0.49
2019-05-15T02:32:44.453Z,0.41
2019-05-15T02:33:44.422Z,0.42
2019-05-15T02:34:44.389Z,0.39
2019-05-15T02:35:44.356Z,0.35
2019-05-15T02:36:44.321Z,0.36
2019-05-15T02:37:44.295Z,0.35
2019-05-15T02:38:44.269Z,0.32
2019-05-15T02:39:44.225Z,0.24
2019-05-15T02:40:44.190Z,0.13
2019-05-15T02:41:44.160Z,0.04
2019-05-15T02:42:44.130Z,0.02
2019-05-15T02:43:44.095Z,-0.10
2019-05-15T02:44:44.066Z,-0.14
2019-05-15T02:45:44.027Z,0.03
2019-05-15T02:46:43.995Z,0.04
2019-05-15T02:47:43.962Z,0.15
2019-05-15T02:48:43.929Z,0.20
2019-05-15T02:49:43.896Z,0.18
2019-05-15T02:50:43.863Z,0.18
2019-05-15T02:51:43.832Z,0.11
2019-05-15T02:52:45.542Z,0.07
2019-05-15T02:53:43.767Z,0.02
2019-05-15T02:54:43.732Z,0.03
2019-05-15T02:55:43.699Z,-0.05
2019-05-15T02:56:43.674Z,-0.08
2019-05-15T02:57:43.632Z,-0.22
2019-05-15T02:58:43.599Z,-0.25
2019-05-15T02:59:43.568Z,-0.28
2019-05-15T03:00:48.151Z,-0.37
2019-05-15T03:01:43.501Z,-0.34
2019-05-15T03:02:43.467Z,-0.39
2019-05-15T03:03:43.434Z,-0.36
2019-05-15T03:04:43.406Z,-0.47
2019-05-15T03:05:43.369Z,-0.51
2019-05-15T03:06:43.336Z,-0.57
2019-05-15T03:07:43.304Z,-0.44
2019-05-15T03:08:43.271Z,-0.55
2019-05-15T03:09:43.237Z,-0.51
2019-05-15T03:10:43.203Z,-0.49
2019-05-15T03:11:43.176Z,-0.51
2019-05-15T03:12:43.139Z,-0.44
2019-05-15T03:13:43.105Z,-0.34
2019-05-15T03:14:43.074Z,-0.37
2019-05-15T03:15:43.038Z,-0.31
2019-05-15T03:16:43.004Z,-0.40
2019-05-15T03:17:42.973Z,-0.29
2019-05-15T03:18:42.940Z,-0.40
2019-05-15T03:19:42.913Z,-0.25
2019-05-15T03:20:42.876Z,-0.33
2019-05-15T03:21:42.840Z,-0.31
2019-05-15T03:22:42.806Z,-0.29
2019-05-15T03:23:42.777Z,-0.25
2019-05-15T03:24:42.740Z,-0.29
2019-05-15T03:25:42.706Z,-0.23
2019-05-15T03:26:42.681Z,-0.31
2019-05-15T03:27:42.641Z,-0.26
2019-05-15T03:28:42.608Z,-0.33
2019-05-15T03:29:42.574Z,-0.25
2019-05-15T03:31:13.464Z,-0.33
2019-05-15T03:31:58.426Z,-0.19
2019-05-15T03:32:53.035Z,-0.28
2019-05-15T03:33:45.459Z,-0.29
2019-05-15T03:34:47.749Z,-0.36
2019-05-15T03:35:44.105Z,-0.23
2019-05-15T03:36:45.194Z,-0.34
2019-05-15T03:37:42.314Z,-0.29
2019-05-15T03:38:42.279Z,-0.26
2019-05-15T03:39:46.589Z,-0.25
2019-05-15T03:40:42.226Z,-0.37
2019-05-15T03:41:42.176Z,-0.39
2019-05-15T03:42:42.144Z,-0.33
2019-05-15T03:43:42.112Z,-0.39
2019-05-15T03:44:42.078Z,-0.25
2019-05-15T03:45:42.045Z,-0.28
2019-05-15T03:46:42.010Z,-0.21
2019-05-15T03:47:41.979Z,-0.15
2019-05-15T03:48:41.944Z,0.07
2019-05-15T03:49:41.913Z,0.07
2019-05-15T03:50:41.886Z,0.14
2019-05-15T03:51:45.749Z,0.07
2019-05-15T03:52:41.813Z,0.10
2019-05-15T03:53:41.780Z,0.04
2019-05-15T03:54:41.748Z,-0.01
2019-05-15T03:55:41.724Z,0.13
2019-05-15T03:56:41.681Z,0.13
2019-05-15T03:57:41.648Z,0.21
2019-05-15T03:58:41.614Z,0.35
2019-05-15T03:59:41.583Z,0.26
2019-05-15T04:00:41.547Z,0.35
2019-05-15T04:01:43.770Z,0.41
2019-05-15T04:02:41.481Z,0.32
2019-05-15T04:03:41.450Z,0.39
2019-05-15T04:04:41.416Z,0.31
2019-05-15T04:05:41.385Z,0.42
2019-05-15T04:06:41.351Z,0.44
2019-05-15T04:07:41.319Z,0.44
2019-05-15T04:08:41.285Z,0.53
2019-05-15T04:09:41.251Z,0.60
2019-05-15T04:10:41.219Z,0.66
2019-05-15T04:11:41.184Z,0.70
2019-05-15T04:12:41.157Z,0.61
2019-05-15T04:13:41.120Z,0.70
2019-05-15T04:14:41.087Z,0.72
2019-05-15T04:15:41.055Z,0.76
2019-05-15T04:16:41.019Z,0.80
2019-05-15T04:17:40.988Z,0.84
2019-05-15T04:18:40.959Z,0.87
2019-05-15T04:19:40.921Z,0.80
2019-05-15T04:20:41.075Z,0.90
2019-05-15T04:21:44.756Z,0.96
2019-05-15T04:22:40.824Z,1.05
2019-05-15T04:23:40.799Z,1.05
2019-05-15T04:24:40.759Z,1.12
2019-05-15T04:25:40.729Z,1.26
2019-05-15T04:26:40.693Z,1.26
2019-05-15T04:27:40.659Z,1.23
2019-05-15T04:28:41.910Z,1.37
2019-05-15T04:29:40.597Z,1.37
2019-05-15T04:30:40.575Z,1.45
2019-05-15T04:31:51.789Z,1.50
2019-05-15T04:32:40.697Z,1.59
2019-05-15T04:33:40.668Z,1.55
2019-05-15T04:34:40.435Z,1.63
2019-05-15T04:35:40.696Z,1.70
2019-05-15T04:36:44.333Z,1.77
2019-05-15T04:37:41.139Z,1.86
2019-05-15T04:38:40.305Z,1.81
2019-05-15T04:39:40.311Z,1.86
2019-05-15T04:40:40.268Z,1.93
2019-05-15T04:41:40.211Z,1.98
2019-05-15T04:42:40.238Z,2.10
2019-05-15T04:43:44.884Z,2.10
2019-05-15T04:44:40.121Z,2.21
2019-05-15T04:45:40.095Z,2.14
2019-05-15T04:46:40.038Z,2.23
2019-05-15T04:47:40.306Z,2.30
2019-05-15T04:48:40.351Z,2.31
2019-05-15T04:49:39.943Z,2.41
2019-05-15T04:50:40.468Z,2.43
2019-05-15T04:51:39.878Z,2.53
2019-05-15T04:52:43.381Z,2.59
2019-05-15T04:53:40.123Z,2.74
2019-05-15T04:54:40.341Z,2.84
2019-05-15T04:55:40.593Z,2.92
2019-05-15T04:56:40.263Z,2.95
2019-05-15T04:57:40.700Z,3.11
2019-05-15T04:58:39.950Z,3.13
2019-05-15T04:59:39.620Z,3.17
2019-05-15T05:00:40.125Z,3.28
2019-05-15T05:01:40.313Z,3.35
2019-05-15T05:02:40.589Z,3.45
2019-05-15T05:03:39.816Z,3.55
2019-05-15T05:04:39.463Z,3.60
2019-05-15T05:05:39.433Z,3.73
2019-05-15T05:06:39.397Z,3.86
2019-05-15T05:07:39.761Z,4.02
2019-05-15T05:08:39.988Z,4.06
2019-05-15T05:09:39.375Z,4.23
2019-05-15T05:10:39.657Z,4.44
2019-05-15T05:11:39.239Z,4.70
2019-05-15T05:12:42.061Z,4.73
2019-05-15T05:13:39.665Z,4.91
2019-05-15T05:14:39.284Z,5.03
2019-05-15T05:15:39.113Z,5.24
2019-05-15T05:16:39.543Z,5.42
2019-05-15T05:17:39.500Z,5.40
2019-05-15T05:18:41.460Z,5.78
2019-05-15T05:19:40.183Z,6.19
2019-05-15T05:20:38.956Z,6.98
2019-05-15T05:21:38.925Z,7.77
2019-05-15T05:22:39.568Z,8.77
2019-05-15T05:23:38.864Z,9.54
2019-05-15T05:24:38.831Z,10.52
2019-05-15T05:25:38.909Z,11.49
2019-05-15T05:26:38.772Z,12.41
2019-05-15T05:27:38.741Z,13.08
2019-05-15T05:28:38.712Z,13.28
2019-05-15T05:29:38.774Z,13.96
2019-05-15T05:30:38.717Z,14.14
2019-05-15T05:31:39.248Z,14.64
2019-05-15T05:32:39.292Z,14.73
2019-05-15T05:33:38.570Z,15.13
2019-05-15T05:34:39.089Z,15.69
2019-05-15T05:35:38.812Z,16.08
2019-05-15T05:36:38.764Z,16.61
2019-05-15T05:37:39.192Z,16.70
2019-05-15T05:38:38.887Z,16.96
2019-05-15T05:39:39.471Z,16.97
2019-05-15T05:40:38.586Z,17.01
2019-05-15T05:41:39.196Z,17.06
2019-05-15T05:42:39.111Z,17.16
2019-05-15T05:43:38.586Z,17.19
2019-05-15T05:44:40.715Z,16.89
2019-05-15T05:45:38.405Z,16.39
2019-05-15T05:46:39.716Z,16.11
2019-05-15T05:47:38.505Z,15.94
2019-05-15T05:48:38.506Z,15.75
2019-05-15T05:49:38.366Z,16.05
2019-05-15T05:50:38.607Z,16.43
2019-05-15T05:51:38.694Z,16.43
2019-05-15T05:52:39.064Z,15.97
2019-05-15T05:53:38.414Z,15.72
2019-05-15T05:54:38.369Z,16.00
2019-05-15T05:55:38.460Z,16.21
2019-05-15T05:56:38.070Z,16.56
2019-05-15T05:57:38.503Z,17.04
2019-05-15T05:58:38.943Z,17.00
2019-05-15T05:59:38.671Z,16.66
2019-05-15T06:00:39.313Z,16.97
2019-05-15T06:01:43.697Z,17.30
2019-05-15T06:02:46.945Z,17.77
2019-05-15T06:03:38.530Z,17.84
2019-05-15T06:04:38.425Z,17.82
2019-05-15T06:05:38.898Z,18.07
2019-05-15T06:06:38.424Z,18.41
2019-05-15T06:07:38.770Z,18.75
2019-05-15T06:08:38.869Z,19.22
2019-05-15T06:09:38.083Z,19.50
2019-05-15T06:10:38.551Z,19.87
2019-05-15T06:11:38.064Z,20.16
2019-05-15T06:12:38.816Z,19.91
2019-05-15T06:13:38.285Z,19.43
2019-05-15T06:14:38.087Z,18.29
2019-05-15T06:15:38.058Z,17.54
2019-05-15T06:16:38.740Z,17.37
2019-05-15T06:17:39.176Z,17.30
2019-05-15T06:18:38.730Z,17.34
2019-05-15T06:19:38.606Z,17.51
2019-05-15T06:20:39.487Z,17.81
2019-05-15T06:21:39.230Z,17.63
2019-05-15T06:22:38.840Z,17.97
2019-05-15T06:23:44.170Z,18.10
2019-05-15T06:24:37.926Z,18.30
2019-05-15T06:25:39.089Z,18.90
2019-05-15T06:26:38.622Z,19.11
2019-05-15T06:27:39.101Z,19.36
2019-05-15T06:28:39.441Z,19.31
2019-05-15T06:29:37.848Z,19.41
2019-05-15T06:30:38.652Z,19.58
2019-05-15T06:31:38.786Z,19.69
2019-05-15T06:32:39.952Z,20.35
2019-05-15T06:33:38.392Z,20.43
2019-05-15T06:34:37.999Z,20.17
2019-05-15T06:35:39.434Z,20.33
2019-05-15T06:36:39.249Z,19.51
2019-05-15T06:37:39.542Z,19.59
2019-05-15T06:38:39.277Z,19.73
2019-05-15T06:39:39.052Z,19.51
2019-05-15T06:40:39.427Z,19.71
2019-05-15T06:41:39.111Z,20.31
2019-05-15T06:42:39.347Z,20.80
2019-05-15T06:43:38.912Z,20.99
2019-05-15T06:44:38.813Z,20.92
2019-05-15T06:45:38.027Z,21.06
2019-05-15T06:46:39.277Z,21.07
2019-05-15T06:47:39.232Z,21.12
2019-05-15T06:48:37.983Z,21.03
2019-05-15T06:49:37.807Z,21.22
2019-05-15T06:50:38.223Z,21.24
2019-05-15T06:51:37.904Z,21.19
2019-05-15T06:52:38.004Z,21.09
2019-05-15T06:53:38.513Z,20.98
2019-05-15T06:54:37.779Z,20.85
2019-05-15T06:55:38.889Z,20.61
2019-05-15T06:56:38.938Z,19.47
2019-05-15T06:57:39.389Z,19.56
2019-05-15T06:58:38.428Z,19.50
2019-05-15T06:59:38.947Z,19.98
2019-05-15T07:00:39.005Z,20.31
2019-05-15T07:01:38.535Z,19.98
2019-05-15T07:02:38.252Z,19.92
2019-05-15T07:03:39.089Z,19.80
2019-05-15T07:04:38.329Z,19.76
2019-05-15T07:05:38.528Z,19.83
2019-05-15T07:06:38.091Z,20.48
2019-05-15T07:07:38.794Z,19.63
2019-05-15T07:08:38.242Z,20.50
2019-05-15T07:09:37.982Z,20.76
2019-05-15T07:10:37.783Z,21.22
2019-05-15T07:11:38.642Z,21.58
2019-05-15T07:12:38.802Z,22.00
2019-05-15T07:13:38.239Z,21.88
2019-05-15T07:14:37.940Z,21.47
2019-05-15T07:15:38.462Z,20.32
2019-05-15T07:16:38.754Z,20.16
2019-05-15T07:17:38.916Z,19.68
2019-05-15T07:18:38.790Z,18.72
2019-05-15T07:19:38.990Z,19.71
2019-05-15T07:20:38.903Z,20.28
2019-05-15T07:21:38.872Z,20.11
2019-05-15T07:22:39.148Z,19.96
2019-05-15T07:23:38.631Z,20.23
2019-05-15T07:24:38.284Z,20.02
2019-05-15T07:25:38.826Z,19.40
2019-05-15T07:26:38.951Z,18.81
2019-05-15T07:27:38.716Z,18.47
2019-05-15T07:28:38.004Z,19.16
2019-05-15T07:29:38.387Z,19.08
2019-05-15T07:30:40.818Z,19.54
2019-05-15T07:31:38.312Z,19.62
2019-05-15T07:32:36.211Z,19.58
2019-05-15T07:33:42.580Z,20.08
2019-05-15T07:34:37.901Z,20.36
2019-05-15T07:35:38.503Z,20.26
2019-05-15T07:36:38.779Z,20.59
2019-05-15T07:37:38.465Z,20.31
2019-05-15T07:38:36.101Z,20.76
2019-05-15T07:39:38.199Z,21.17
2019-05-15T07:40:38.448Z,20.77
2019-05-15T07:41:36.040Z,20.32
2019-05-15T07:42:38.673Z,20.66
2019-05-15T07:43:38.243Z,20.94
2019-05-15T07:44:38.643Z,21.22
2019-05-15T07:45:42.512Z,20.97
2019-05-15T07:46:38.105Z,20.31
2019-05-15T07:47:38.339Z,20.57
2019-05-15T07:48:38.139Z,19.86
2019-05-15T07:49:35.891Z,20.20
2019-05-15T07:50:38.451Z,20.13
2019-05-15T07:51:38.012Z,20.97
2019-05-15T07:52:35.857Z,21.21
2019-05-15T07:53:38.217Z,21.58
2019-05-15T07:54:38.146Z,21.62
2019-05-15T07:55:39.038Z,20.87
2019-05-15T07:56:37.961Z,20.70
2019-05-15T07:57:38.890Z,20.35
2019-05-15T07:58:35.729Z,19.98
2019-05-15T07:59:35.710Z,19.37
2019-05-15T08:00:35.690Z,19.86
2019-05-15T08:01:35.673Z,20.13
2019-05-15T08:02:37.822Z,20.41
2019-05-15T08:03:39.570Z,20.41
2019-05-15T08:04:37.915Z,20.08
2019-05-15T08:05:38.072Z,19.69
2019-05-15T08:06:38.592Z,19.77
2019-05-15T08:07:35.561Z,19.26
2019-05-15T08:08:35.540Z,18.94
2019-05-15T08:09:35.522Z,19.21
2019-05-15T08:10:35.521Z,19.62
2019-05-15T08:11:35.485Z,19.63
2019-05-15T08:12:35.465Z,19.63
2019-05-15T08:13:35.447Z,19.78
2019-05-15T08:14:35.430Z,19.95
2019-05-15T08:15:35.409Z,20.18
2019-05-15T08:16:35.389Z,19.62
2019-05-15T08:17:35.370Z,19.95
2019-05-15T08:18:35.350Z,19.21
2019-05-15T08:19:35.332Z,19.13
2019-05-15T08:20:35.311Z,19.43
2019-05-15T08:21:35.294Z,19.43
2019-05-15T08:22:38.071Z,19.56
2019-05-15T08:23:35.254Z,19.71
2019-05-15T08:24:35.275Z,19.81
2019-05-15T08:25:35.576Z,19.86
2019-05-15T08:26:35.195Z,19.78
2019-05-15T08:27:35.176Z,19.58
2019-05-15T08:28:35.156Z,20.02
2019-05-15T08:29:35.137Z,20.48
2019-05-15T08:30:35.117Z,20.35
2019-05-15T08:31:35.123Z,20.43
2019-05-15T08:32:35.106Z,20.28
2019-05-15T08:33:35.058Z,20.77
2019-05-15T08:34:35.040Z,21.38
2019-05-15T08:35:35.021Z,21.06
2019-05-15T08:36:35.007Z,20.85
2019-05-15T08:37:34.981Z,21.40
2019-05-15T08:38:34.964Z,21.27
2019-05-15T08:39:34.946Z,21.16
2019-05-15T08:40:34.925Z,20.64
2019-05-15T08:41:34.908Z,20.82
2019-05-15T08:42:34.889Z,20.29
2019-05-15T08:43:34.872Z,19.86
2019-05-15T08:44:34.850Z,20.32
2019-05-15T08:45:34.831Z,20.82
2019-05-15T08:46:34.814Z,21.40
2019-05-15T08:47:34.794Z,20.61
2019-05-15T08:48:34.776Z,20.42
2019-05-15T08:49:34.777Z,20.55
2019-05-15T08:50:34.742Z,20.74
2019-05-15T08:51:34.720Z,20.03
2019-05-15T08:52:34.713Z,19.04
2019-05-15T08:53:34.682Z,18.11
2019-05-15T08:54:34.662Z,18.33
2019-05-15T08:55:34.644Z,17.99
2019-05-15T08:56:34.626Z,19.02
2019-05-15T08:57:34.605Z,19.58
2019-05-15T08:58:34.587Z,20.31
2019-05-15T08:59:34.568Z,20.84
2019-05-15T09:00:34.588Z,20.70
2019-05-15T09:01:34.530Z,20.31
2019-05-15T09:02:34.509Z,20.14
2019-05-15T09:03:34.489Z,20.31
2019-05-15T09:04:35.222Z,20.59
2019-05-15T09:05:34.451Z,21.14
2019-05-15T09:06:34.433Z,20.91
2019-05-15T09:07:34.412Z,20.70
2019-05-15T09:08:34.395Z,20.24
2019-05-15T09:09:34.374Z,20.32
2019-05-15T09:10:34.356Z,20.38
2019-05-15T09:11:34.338Z,20.08
2019-05-15T09:12:34.317Z,19.99
2019-05-15T09:13:34.302Z,19.96
2019-05-15T09:14:34.280Z,20.11
2019-05-15T09:15:34.266Z,20.61
2019-05-15T09:16:34.241Z,20.84
2019-05-15T09:17:34.222Z,21.25
2019-05-15T09:18:34.204Z,20.47
2019-05-15T09:19:34.185Z,19.71
2019-05-15T09:20:34.176Z,19.11
2019-05-15T09:21:34.145Z,18.52
2019-05-15T09:22:34.131Z,18.63
2019-05-15T09:23:34.109Z,19.66
2019-05-15T09:24:34.089Z,20.02
2019-05-15T09:25:34.069Z,20.61
2019-05-15T09:26:35.561Z,21.21
2019-05-15T09:27:34.031Z,20.39
2019-05-15T09:28:34.012Z,19.84
2019-05-15T09:29:33.992Z,20.01
2019-05-15T09:30:33.974Z,20.85
2019-05-15T09:31:33.956Z,20.80
2019-05-15T09:32:33.935Z,20.82
2019-05-15T09:33:33.918Z,20.58
2019-05-15T09:34:48.092Z,21.29
2019-05-15T09:35:33.880Z,20.76
2019-05-15T09:36:33.859Z,20.31
2019-05-15T09:37:33.941Z,21.27
2019-05-15T09:38:33.824Z,21.69
2019-05-15T09:39:33.804Z,22.06
2019-05-15T09:40:45.338Z,22.35
2019-05-15T09:41:33.767Z,22.79
2019-05-15T09:42:33.748Z,23.04
2019-05-15T09:43:33.731Z,23.04
2019-05-15T09:44:33.713Z,22.30
2019-05-15T09:45:33.701Z,22.24
2019-05-15T09:46:33.676Z,21.54
2019-05-15T09:47:33.663Z,21.52
2019-05-15T09:48:33.642Z,21.50
2019-05-15T09:49:33.623Z,22.00
2019-05-15T09:50:33.606Z,21.07
2019-05-15T09:51:33.589Z,19.61
2019-05-15T09:52:33.569Z,19.36
2019-05-15T09:53:33.553Z,19.36
2019-05-15T09:54:33.535Z,19.87
2019-05-15T09:55:33.515Z,19.61
2019-05-15T09:56:33.498Z,19.00
2019-05-15T09:57:33.477Z,19.40
2019-05-15T09:58:33.459Z,20.33
2019-05-15T09:59:33.445Z,19.78
2019-05-15T10:00:33.429Z,19.07
2019-05-15T10:01:33.405Z,18.08
2019-05-15T10:02:33.385Z,17.72
2019-05-15T10:03:33.366Z,18.65
2019-05-15T10:04:33.348Z,19.19
2019-05-15T10:05:33.323Z,19.94
2019-05-15T10:06:33.306Z,20.89
2019-05-15T10:07:33.287Z,21.90
2019-05-15T10:08:33.265Z,21.13
2019-05-15T10:09:33.247Z,19.69
2019-05-15T10:10:33.229Z,18.87
2019-05-15T10:11:33.207Z,18.36
2019-05-15T10:12:35.168Z,18.14
2019-05-15T10:13:33.168Z,19.16
2019-05-15T10:14:33.159Z,19.29
2019-05-15T10:15:33.129Z,19.77
2019-05-15T10:16:33.117Z,20.61
2019-05-15T10:17:33.089Z,21.44
2019-05-15T10:18:33.131Z,21.10
2019-05-15T10:19:33.052Z,19.63
2019-05-15T10:20:33.032Z,18.75
2019-05-15T10:21:33.010Z,19.14
2019-05-15T10:22:32.990Z,19.13
2019-05-15T10:23:32.972Z,19.44
2019-05-15T10:24:32.951Z,19.07
2019-05-15T10:25:32.932Z,18.39
2019-05-15T10:26:32.913Z,18.54
2019-05-15T10:27:32.894Z,19.66
2019-05-15T10:28:32.872Z,19.46
2019-05-15T10:29:32.852Z,19.26
2019-05-15T10:30:32.832Z,18.99
2019-05-15T10:31:32.812Z,18.41
2019-05-15T10:32:32.792Z,18.14
2019-05-15T10:33:32.772Z,17.84
2019-05-15T10:34:32.752Z,17.96
2019-05-15T10:35:32.735Z,18.52
2019-05-15T10:36:32.711Z,19.29
2019-05-15T10:37:32.691Z,19.96
2019-05-15T10:38:32.671Z,19.54
2019-05-15T10:39:32.650Z,18.54
2019-05-15T10:40:32.634Z,18.45
2019-05-15T10:41:32.610Z,18.21
2019-05-15T10:42:32.589Z,18.36
2019-05-15T10:43:32.568Z,18.20
2019-05-15T10:44:32.548Z,18.37
2019-05-15T10:45:32.526Z,18.47
2019-05-15T10:46:32.506Z,18.54
2019-05-15T10:47:32.489Z,19.13
2019-05-15T10:48:32.542Z,19.08
2019-05-15T10:49:32.444Z,18.33
2019-05-15T10:50:32.425Z,18.25
2019-05-15T10:51:32.404Z,19.04
2019-05-15T10:52:32.381Z,18.99
2019-05-15T10:53:32.360Z,18.98
2019-05-15T10:54:32.343Z,18.66
2019-05-15T10:55:32.320Z,19.13
2019-05-15T10:56:32.297Z,19.96
2019-05-15T10:57:32.283Z,20.36
2019-05-15T10:58:32.313Z,20.57
2019-05-15T10:59:32.236Z,20.47
2019-05-15T11:00:32.216Z,19.81
2019-05-15T11:01:32.198Z,20.06
2019-05-15T11:02:32.177Z,19.91
2019-05-15T11:03:34.929Z,19.95
2019-05-15T11:04:32.132Z,20.17
2019-05-15T11:05:44.524Z,20.21
2019-05-15T11:06:32.093Z,20.61
2019-05-15T11:07:32.074Z,20.98
2019-05-15T11:08:32.172Z,21.13
2019-05-15T11:09:32.031Z,20.36
2019-05-15T11:10:32.014Z,19.61
2019-05-15T11:11:31.994Z,19.51
2019-05-15T11:12:31.972Z,18.90
2019-05-15T11:13:31.952Z,18.11
2019-05-15T11:14:31.935Z,18.03
2019-05-15T11:15:31.913Z,18.65
2019-05-15T11:16:31.892Z,18.58
2019-05-15T11:17:31.879Z,18.50
2019-05-15T11:18:31.853Z,18.30
2019-05-15T11:19:35.962Z,18.54
2019-05-15T11:20:31.811Z,19.10
2019-05-15T11:21:31.790Z,19.29
2019-05-15T11:22:31.781Z,20.02
2019-05-15T11:23:31.749Z,19.63
2019-05-15T11:24:32.331Z,19.80
2019-05-15T11:25:31.708Z,20.47
2019-05-15T11:26:33.543Z,20.55
2019-05-15T11:27:31.666Z,20.08
2019-05-15T11:28:32.479Z,19.44
2019-05-15T11:29:31.625Z,19.96
2019-05-15T11:30:31.611Z,20.77
2019-05-15T11:31:31.624Z,21.04
2019-05-15T11:32:31.566Z,20.48
2019-05-15T11:33:31.581Z,20.17
2019-05-15T11:34:31.525Z,19.95
2019-05-15T11:35:31.505Z,19.71
2019-05-15T11:36:31.519Z,19.98
2019-05-15T11:37:31.465Z,19.59
2019-05-15T11:38:31.447Z,19.39
2019-05-15T11:39:31.425Z,19.06
2019-05-15T11:40:31.407Z,19.04
2019-05-15T11:41:31.384Z,18.78
2019-05-15T11:42:31.367Z,18.67
2019-05-15T11:43:31.348Z,18.81
2019-05-15T11:44:31.326Z,18.92
2019-05-15T11:45:31.305Z,19.16
2019-05-15T11:46:31.290Z,19.59
2019-05-15T11:47:31.264Z,19.48
2019-05-15T11:48:31.243Z,19.81
2019-05-15T11:49:31.222Z,19.54
2019-05-15T11:50:31.203Z,19.22
2019-05-15T11:51:31.183Z,19.55
2019-05-15T11:52:31.167Z,19.56
2019-05-15T11:53:31.143Z,19.19
2019-05-15T11:54:31.122Z,18.76
2019-05-15T11:55:31.102Z,18.65
2019-05-15T11:56:31.083Z,19.18
2019-05-15T11:57:42.401Z,19.62
2019-05-15T11:58:31.042Z,19.77
2019-05-15T11:59:31.023Z,19.95
2019-05-15T12:00:31.003Z,20.13
2019-05-15T12:01:30.980Z,20.55
2019-05-15T12:02:30.963Z,20.92
2019-05-15T12:03:30.946Z,20.82
2019-05-15T12:04:34.039Z,20.77
2019-05-15T12:05:30.900Z,20.80
2019-05-15T12:06:30.880Z,20.62
2019-05-15T12:07:30.859Z,19.95
2019-05-15T12:08:30.842Z,19.92
2019-05-15T12:09:30.821Z,20.18
2019-05-15T12:10:30.802Z,20.06
2019-05-15T12:11:36.605Z,20.39
2019-05-15T12:12:32.038Z,20.59
2019-05-15T12:13:30.740Z,19.98
2019-05-15T12:14:30.721Z,19.55
2019-05-15T12:15:30.701Z,19.22
2019-05-15T12:16:30.687Z,19.04
2019-05-15T12:17:33.716Z,18.75
2019-05-15T12:18:30.641Z,18.88
2019-05-15T12:19:30.622Z,19.11
2019-05-15T12:20:30.601Z,19.06
2019-05-15T12:21:30.587Z,19.16
2019-05-15T12:22:30.560Z,19.51
2019-05-15T12:23:30.540Z,19.71
2019-05-15T12:24:35.231Z,19.48
2019-05-15T12:25:31.959Z,19.74
2019-05-15T12:26:30.485Z,19.04
2019-05-15T12:27:30.460Z,18.58
2019-05-15T12:28:30.439Z,18.73
2019-05-15T12:29:30.417Z,18.91
2019-05-15T12:30:30.398Z,18.98
2019-05-15T12:31:30.377Z,19.37
2019-05-15T12:32:36.052Z,19.68
2019-05-15T12:33:30.345Z,19.69
2019-05-15T12:34:30.326Z,19.43
2019-05-15T12:35:30.296Z,19.41
2019-05-15T12:36:51.310Z,19.78
2019-05-15T12:37:30.257Z,20.33
2019-05-15T12:38:30.232Z,20.72
2019-05-15T12:39:30.629Z,21.01
2019-05-15T13:00:29.946Z,19.50
2019-05-15T13:01:29.772Z,19.36
2019-05-15T13:02:29.752Z,19.07
2019-05-15T13:03:29.880Z,18.99
2019-05-15T13:04:29.711Z,19.32
2019-05-15T13:05:32.386Z,19.47
2019-05-15T13:06:29.675Z,19.56
2019-05-15T13:07:29.651Z,19.78
2019-05-15T13:08:29.630Z,19.80
2019-05-15T13:09:29.608Z,19.92
2019-05-15T13:10:29.591Z,19.78
2019-05-15T13:11:29.569Z,19.59
2019-05-15T13:12:29.550Z,19.55
2019-05-15T13:13:29.528Z,19.80
2019-05-15T13:14:29.513Z,19.68
2019-05-15T13:15:29.492Z,19.36
2019-05-15T13:16:29.468Z,19.23
2019-05-15T13:17:29.448Z,19.39
2019-05-15T13:18:29.428Z,19.46
2019-05-15T13:19:29.410Z,19.25
2019-05-15T13:20:29.394Z,19.22
2019-05-15T13:21:29.716Z,19.07